Time;durP1;ratioP1;P1;durP2;ratioP2;P2;SDS_P1;SDS_P2;PMS_P1;PMS_P2;Temp;Humidity;BMP_temperature;BMP_pressure;BME280_temperature;BME280_humidity;BME280_pressure;Samples;Min_cycle;Max_cycle;Signal;HPM_P1;HPM_P2
2020/12/22 00:00:57;;;;;;;6.33;5.67;;;;;;;9.60;54.00;101399.43;1754084;81;21210;-67
2020/12/22 00:03:24;;;;;;;8.55;6.12;;;;;;;9.58;53.99;101412.84;1740974;81;21137;-64
2020/12/22 00:05:52;;;;;;;6.40;5.80;;;;;;;9.59;53.95;101409.70;1744981;81;21187;-65
2020/12/22 00:08:20;;;;;;;5.92;5.33;;;;;;;9.58;53.96;101408.86;1783052;80;21141;-66
2020/12/22 00:10:48;;;;;;;6.45;5.67;;;;;;;9.57;53.94;101400.52;1772080;80;21370;-65
2020/12/22 00:13:15;;;;;;;6.50;5.90;;;;;;;9.57;53.94;101411.14;1778573;80;21145;-65
2020/12/22 00:15:44;;;;;;;6.55;5.70;;;;;;;9.57;53.92;101411.62;1776308;80;21151;-65
2020/12/22 00:18:12;;;;;;;7.08;6.08;;;;;;;9.55;53.92;101407.77;1779296;78;21188;-65
2020/12/22 00:20:39;;;;;;;7.33;6.22;;;;;;;9.54;53.89;101395.48;1775351;80;21168;-65
2020/12/22 00:23:07;;;;;;;7.17;5.87;;;;;;;9.53;53.89;101398.25;1781376;80;21185;-64
2020/12/22 00:25:43;;;;;;;6.92;6.03;;;;;;;9.53;53.89;101399.58;1772438;80;21983;-62
2020/12/22 00:28:14;;;;;;;7.10;6.40;;;;;;;9.52;53.88;101393.43;1780584;80;21154;-64
2020/12/22 00:30:41;;;;;;;6.70;6.10;;;;;;;9.51;53.87;101386.42;1772040;80;21194;-64
2020/12/22 00:33:08;;;;;;;6.72;6.03;;;;;;;9.50;53.87;101388.70;1736784;80;21122;-65
2020/12/22 00:35:35;;;;;;;7.30;5.78;;;;;;;9.49;53.86;101382.22;1733849;81;21205;-65
2020/12/22 00:38:03;;;;;;;7.05;6.35;;;;;;;9.49;53.88;101382.22;1782716;80;21167;-66
2020/12/22 00:40:30;;;;;;;7.62;6.45;;;;;;;9.49;53.84;101379.56;1784749;80;21141;-65
2020/12/22 00:43:00;;;;;;;7.08;6.37;;;;;;;9.48;53.86;101373.88;1787065;80;21809;-66
2020/12/22 00:45:26;;;;;;;7.65;6.90;;;;;;;9.48;53.85;101376.04;1786082;80;21379;-65
2020/12/22 00:47:54;;;;;;;7.42;6.67;;;;;;;9.48;53.84;101379.19;1733951;81;21184;-66
2020/12/22 00:50:21;;;;;;;7.50;6.70;;;;;;;9.47;53.81;101380.16;1757941;81;21170;-67
2020/12/22 00:52:49;;;;;;;7.12;6.42;;;;;;;9.46;53.80;101372.66;1772766;80;21165;-65
2020/12/22 00:55:17;;;;;;;7.03;6.33;;;;;;;9.45;53.77;101365.69;1784900;80;21172;-66
2020/12/22 00:57:46;;;;;;;7.37;6.67;;;;;;;9.44;53.77;101366.18;1781961;80;21128;-65
2020/12/22 01:00:16;;;;;;;7.50;6.62;;;;;;;9.43;53.80;101363.64;1781784;80;21378;-66
2020/12/22 01:02:43;;;;;;;7.12;6.42;;;;;;;9.43;53.79;101364.48;1764700;80;21228;-65
2020/12/22 01:05:10;;;;;;;7.72;6.42;;;;;;;9.42;53.78;101370.73;1778681;80;21553;-65
2020/12/22 01:07:38;;;;;;;7.00;6.37;;;;;;;9.41;53.78;101371.72;1780262;80;21172;-66
2020/12/22 01:10:06;;;;;;;7.62;6.92;;;;;;;9.40;53.78;101367.36;1759014;80;21571;-64
2020/12/22 01:12:35;;;;;;;7.35;6.65;;;;;;;9.40;53.77;101368.69;1772391;80;21195;-65
2020/12/22 01:15:03;;;;;;;7.95;7.17;;;;;;;9.40;53.77;101373.16;1751209;80;21142;-65
2020/12/22 01:17:30;;;;;;;7.40;6.70;;;;;;;9.40;53.78;101373.98;1757614;81;21191;-64
2020/12/22 01:19:58;;;;;;;7.33;6.62;;;;;;;9.40;53.75;101370.50;1754684;81;21180;-64
2020/12/22 01:22:25;;;;;;;7.28;6.58;;;;;;;9.40;53.72;101366.52;1754872;81;21166;-65
2020/12/22 01:24:52;;;;;;;8.35;7.55;;;;;;;9.40;53.71;101371.83;1751841;81;21188;-64
2020/12/22 01:27:20;;;;;;;7.92;7.12;;;;;;;9.39;53.71;101374.13;1765815;81;21191;-65
2020/12/22 01:29:47;;;;;;;7.17;6.47;;;;;;;9.35;53.71;101363.38;1765119;81;21155;-64
2020/12/22 01:32:15;;;;;;;8.00;7.20;;;;;;;9.36;53.71;101365.91;1761305;80;21162;-65
2020/12/22 01:34:43;;;;;;;8.15;7.35;;;;;;;9.36;53.69;101365.91;1756429;81;21201;-65
2020/12/22 01:37:14;;;;;;;7.58;6.78;;;;;;;9.36;53.69;101357.95;1745896;80;21215;-66
2020/12/22 01:39:41;;;;;;;8.10;7.30;;;;;;;9.34;53.68;101351.94;1766192;81;21217;-65
2020/12/22 01:42:09;;;;;;;8.35;7.55;;;;;;;9.35;53.71;101361.59;1767660;81;21112;-66
2020/12/22 01:44:36;;;;;;;9.00;7.70;;;;;;;9.33;53.71;101351.59;1753324;81;21169;-64
2020/12/22 01:47:04;;;;;;;8.43;7.53;;;;;;;9.33;53.67;101352.91;1758793;81;21126;-66
2020/12/22 01:49:31;;;;;;;8.50;7.62;;;;;;;9.33;53.63;101354.70;1767267;81;21420;-65
2020/12/22 01:51:59;;;;;;;8.93;7.87;;;;;;;9.35;53.65;101355.42;1765220;81;21212;-66
2020/12/22 01:54:26;;;;;;;8.78;7.87;;;;;;;9.33;53.62;101360.00;1752405;81;21198;-65
2020/12/22 01:56:54;;;;;;;9.10;8.20;;;;;;;9.33;53.61;101356.02;1752625;81;22034;-65
2020/12/22 01:59:21;;;;;;;9.20;7.97;;;;;;;9.32;53.59;101352.54;1754020;81;21144;-66
2020/12/22 02:01:51;;;;;;;10.53;8.10;;;;;;;9.32;53.59;101347.23;1749493;81;21396;-65
2020/12/22 02:04:18;;;;;;;9.10;8.20;;;;;;;9.33;53.56;101349.39;1756536;81;21253;-65
2020/12/22 02:06:46;;;;;;;9.28;8.08;;;;;;;9.32;53.57;101349.05;1745033;81;21150;-67
2020/12/22 02:09:13;;;;;;;10.72;7.65;;;;;;;9.31;53.56;101338.06;1755949;81;21184;-65
2020/12/22 02:11:40;;;;;;;9.63;8.63;;;;;;;9.31;53.55;101334.09;1757559;81;21573;-66
2020/12/22 02:14:10;;;;;;;10.43;9.15;;;;;;;9.30;53.55;101331.09;1762740;80;22072;-65
2020/12/22 02:16:38;;;;;;;10.20;8.70;;;;;;;9.31;53.54;101335.41;1741313;81;21631;-66
2020/12/22 02:19:07;;;;;;;9.80;8.35;;;;;;;9.30;53.54;101335.07;1766763;80;21229;-64
2020/12/22 02:21:34;;;;;;;10.03;8.78;;;;;;;9.29;53.55;101326.28;1758103;81;21156;-65
2020/12/22 02:24:02;;;;;;;10.28;8.98;;;;;;;9.28;53.54;101331.20;1751569;81;21147;-64
2020/12/22 02:26:31;;;;;;;9.15;8.23;;;;;;;9.29;53.52;101341.32;1769474;81;21411;-65
2020/12/22 02:28:59;;;;;;;9.53;8.53;;;;;;;9.28;53.54;101335.67;1770093;81;21158;-65
2020/12/22 02:31:26;;;;;;;9.68;8.28;;;;;;;9.28;53.52;101339.65;1752393;81;21135;-63
2020/12/22 02:33:54;;;;;;;10.05;9.05;;;;;;;9.28;53.51;101336.51;1767943;81;21163;-63
2020/12/22 02:36:21;;;;;;;10.28;9.10;;;;;;;9.27;53.49;101351.20;1765107;81;21151;-64
2020/12/22 02:38:48;;;;;;;10.20;8.73;;;;;;;9.27;53.45;101332.64;1754625;81;21433;-64
2020/12/22 02:41:15;;;;;;;9.88;8.88;;;;;;;9.28;53.48;101337.00;1770072;81;21188;-64
2020/12/22 02:43:43;;;;;;;9.85;8.78;;;;;;;9.27;53.44;101333.97;1770236;81;21590;-64
2020/12/22 02:46:11;;;;;;;9.18;8.20;;;;;;;9.24;53.46;101328.44;1770281;81;21140;-64
2020/12/22 02:48:38;;;;;;;11.35;8.93;;;;;;;9.25;53.44;101332.76;1758157;81;21127;-67
2020/12/22 02:51:06;;;;;;;9.98;8.93;;;;;;;9.25;53.44;101338.06;1765142;80;21449;-64
2020/12/22 02:53:33;;;;;;;9.83;8.30;;;;;;;9.23;53.43;101332.91;1761619;81;21634;-64
2020/12/22 02:56:01;;;;;;;10.30;8.60;;;;;;;9.23;53.44;101336.88;1766110;80;21171;-65
2020/12/22 02:58:28;;;;;;;10.98;8.50;;;;;;;9.24;53.43;101339.05;1741501;81;21160;-65
2020/12/22 03:00:55;;;;;;;8.85;7.67;;;;;;;9.23;53.41;101333.36;1774812;80;21133;-66
2020/12/22 03:03:23;;;;;;;9.98;8.25;;;;;;;9.23;53.41;101334.69;1781863;80;21247;-67
2020/12/22 03:05:50;;;;;;;10.95;8.98;;;;;;;9.21;53.41;101333.51;1765876;80;21207;-65
2020/12/22 03:08:17;;;;;;;9.88;8.33;;;;;;;9.21;53.40;101329.53;1779556;80;21556;-64
2020/12/22 03:10:45;;;;;;;9.05;7.83;;;;;;;9.21;53.42;101322.03;1779903;80;21165;-65
2020/12/22 03:13:12;;;;;;;10.05;8.33;;;;;;;9.21;53.41;101322.91;1777045;80;21132;-66
2020/12/22 03:15:39;;;;;;;10.78;8.98;;;;;;;9.20;53.39;101319.88;1788402;80;21510;-66
2020/12/22 03:18:07;;;;;;;9.43;8.08;;;;;;;9.19;53.37;101315.55;1788983;80;21133;-66
2020/12/22 03:20:34;;;;;;;10.40;8.43;;;;;;;9.20;53.36;101313.24;1789091;80;21156;-65
2020/12/22 03:23:01;;;;;;;9.23;8.15;;;;;;;9.20;53.34;101301.31;1787523;80;21203;-65
2020/12/22 03:25:29;;;;;;;10.00;8.68;;;;;;;9.19;53.36;101307.59;1766982;80;21174;-66
2020/12/22 03:28:00;;;;;;;10.68;9.35;;;;;;;9.18;53.34;101308.55;1788940;80;21352;-66
2020/12/22 03:30:27;;;;;;;9.48;8.10;;;;;;;9.18;53.35;101307.22;1788953;80;21181;-65
2020/12/22 03:32:54;;;;;;;10.55;8.93;;;;;;;9.19;53.34;101308.05;1779175;80;21160;-66
2020/12/22 03:35:22;;;;;;;11.78;9.33;;;;;;;9.18;53.34;101308.55;1789092;80;21616;-66
2020/12/22 03:37:50;;;;;;;10.72;8.63;;;;;;;9.17;53.31;101314.80;1788990;80;21120;-68
2020/12/22 03:40:20;;;;;;;10.45;8.88;;;;;;;9.18;53.29;101312.52;1776091;80;21364;-67
2020/12/22 03:42:46;;;;;;;10.05;8.43;;;;;;;9.18;53.29;101319.16;1784648;80;21161;-66
2020/12/22 03:45:16;;;;;;;11.88;9.65;;;;;;;9.18;53.31;101319.64;1763354;80;21147;-66
2020/12/22 03:47:44;;;;;;;11.00;9.80;;;;;;;9.17;53.31;101320.59;1765011;81;21636;-65
2020/12/22 03:50:13;;;;;;;11.15;9.43;;;;;;;9.16;53.30;101325.06;1753662;80;21613;-65
2020/12/22 03:52:40;;;;;;;12.25;9.75;;;;;;;9.16;53.29;101319.76;1782542;80;22371;-66
2020/12/22 03:55:07;;;;;;;11.63;9.35;;;;;;;9.15;53.28;101313.24;1754646;81;21170;-65
2020/12/22 03:57:34;;;;;;;10.70;8.88;;;;;;;9.16;53.25;101310.48;1770472;80;21368;-65
2020/12/22 04:00:04;;;;;;;10.35;8.98;;;;;;;9.15;53.26;101304.80;1779386;80;21157;-64
2020/12/22 04:02:33;;;;;;;12.13;8.18;;;;;;;9.15;53.28;101306.12;1779495;80;21129;-64
2020/12/22 04:05:00;;;;;;;12.15;9.38;;;;;;;9.15;53.26;101302.64;1784682;80;21407;-64
2020/12/22 04:07:27;;;;;;;11.45;9.35;;;;;;;9.15;53.26;101307.45;1779283;80;21161;-63
2020/12/22 04:09:54;;;;;;;9.65;8.23;;;;;;;9.16;53.25;101309.64;1760453;80;21181;-63
2020/12/22 04:12:22;;;;;;;12.85;10.03;;;;;;;9.14;53.24;101309.75;1772505;79;21618;-64
2020/12/22 04:14:49;;;;;;;11.25;9.48;;;;;;;9.15;53.23;101306.12;1779695;80;21152;-64
2020/12/22 04:17:17;;;;;;;11.70;9.85;;;;;;;9.14;53.18;101311.08;1787708;80;21193;-65
2020/12/22 04:19:46;;;;;;;10.95;8.98;;;;;;;9.15;53.17;101310.59;1772347;80;21159;-64
2020/12/22 04:22:13;;;;;;;10.10;8.58;;;;;;;9.14;53.18;101307.10;1783529;80;21165;-65
2020/12/22 04:24:40;;;;;;;12.00;9.78;;;;;;;9.14;53.15;101322.17;1773781;80;22022;-63
2020/12/22 04:27:08;;;;;;;15.38;9.75;;;;;;;9.13;53.16;101316.50;1780436;78;21145;-63
2020/12/22 04:29:35;;;;;;;12.70;9.23;;;;;;;9.12;53.13;101314.34;1765023;80;21350;-64
2020/12/22 04:32:02;;;;;;;10.82;8.48;;;;;;;9.12;53.13;101307.70;1763938;80;21143;-65
2020/12/22 04:34:29;;;;;;;10.48;8.63;;;;;;;9.13;53.14;101308.05;1782637;80;21173;-65
2020/12/22 04:36:56;;;;;;;11.57;9.03;;;;;;;9.12;53.11;101305.55;1774597;80;21137;-64
2020/12/22 04:39:24;;;;;;;11.22;8.63;;;;;;;9.11;53.11;101303.35;1787495;80;21161;-65
2020/12/22 04:41:51;;;;;;;11.20;8.70;;;;;;;9.11;53.10;101302.03;1781311;80;21356;-66
2020/12/22 04:44:18;;;;;;;10.48;9.38;;;;;;;9.10;53.09;101302.14;1756443;81;21142;-65
2020/12/22 04:46:52;;;;;;;10.28;9.18;;;;;;;9.11;53.06;101304.68;1738128;81;21131;-66
2020/12/22 04:49:24;;;;;;;11.53;9.40;;;;;;;9.10;53.07;101306.12;1737005;81;22262;-66
2020/12/22 04:51:53;;;;;;;10.40;9.10;;;;;;;9.10;53.06;101300.36;1734985;81;21118;-66
2020/12/22 04:54:22;;;;;;;10.53;8.50;;;;;;;9.09;53.03;101296.50;1749196;81;21219;-65
2020/12/22 04:56:49;;;;;;;11.65;9.25;;;;;;;9.09;53.01;101295.17;1760642;80;21461;-68
2020/12/22 04:59:16;;;;;;;12.13;9.73;;;;;;;9.07;53.01;101292.63;1769365;80;21851;-67
2020/12/22 05:01:44;;;;;;;10.58;8.95;;;;;;;9.08;53.00;101289.49;1779678;80;21176;-65
2020/12/22 05:04:12;;;;;;;9.38;8.13;;;;;;;9.07;52.99;101295.28;1693078;82;21173;-67
2020/12/22 05:06:39;;;;;;;10.00;8.65;;;;;;;9.07;52.99;101290.47;1736348;81;22909;-63
2020/12/22 05:09:06;;;;;;;10.03;8.38;;;;;;;9.06;52.98;101292.28;1752994;81;21135;-64
2020/12/22 05:11:37;;;;;;;10.90;8.80;;;;;;;9.07;52.98;101293.12;1741523;81;21611;-64
2020/12/22 05:14:05;;;;;;;10.35;8.55;;;;;;;9.06;52.96;101294.94;1757467;81;21154;-67
2020/12/22 05:16:36;;;;;;;10.15;8.20;;;;;;;9.06;52.96;101285.66;1765583;81;21741;-67
2020/12/22 05:19:04;;;;;;;11.15;8.25;;;;;;;9.05;52.99;101290.59;1770151;81;23593;-67
2020/12/22 05:21:36;;;;;;;9.85;8.18;;;;;;;9.05;52.96;101286.61;1767981;81;21150;-64
2020/12/22 05:24:04;;;;;;;10.60;9.13;;;;;;;9.04;52.99;101292.89;1770331;81;21645;-65
2020/12/22 05:26:33;;;;;;;10.20;8.60;;;;;;;9.04;52.96;101291.08;1750247;81;21645;-66
2020/12/22 05:29:16;;;;;;;12.07;8.80;;;;;;;9.03;52.96;101298.66;1756969;80;21201;-65
2020/12/22 05:31:50;;;;;;;10.90;8.63;;;;;;;9.03;52.95;101293.84;1761621;80;22109;-66
2020/12/22 05:34:18;;;;;;;9.08;7.37;;;;;;;9.02;52.94;101294.33;1754066;80;21232;-65
2020/12/22 05:36:47;;;;;;;9.40;8.35;;;;;;;9.01;52.97;101299.75;1789001;80;21131;-66
2020/12/22 05:39:19;;;;;;;10.65;7.90;;;;;;;9.01;52.95;101289.14;1786454;80;21191;-66
2020/12/22 05:41:46;;;;;;;9.85;7.83;;;;;;;9.01;52.92;101297.09;1739698;81;21162;-67
2020/12/22 05:44:14;;;;;;;9.18;7.58;;;;;;;9.00;52.93;101287.44;1757751;80;21550;-66
2020/12/22 05:46:41;;;;;;;11.80;8.33;;;;;;;9.00;52.89;101285.66;1749160;80;21159;-67
2020/12/22 05:49:10;;;;;;;9.58;8.10;;;;;;;9.00;52.89;101288.77;1754561;79;21349;-66
2020/12/22 05:51:45;;;;;;;9.70;8.03;;;;;;;9.00;52.88;101280.35;1726260;81;21179;-67
2020/12/22 05:54:14;;;;;;;9.33;7.85;;;;;;;9.00;52.88;101282.14;1719733;81;21146;-66
2020/12/22 05:56:41;;;;;;;10.08;8.28;;;;;;;9.00;52.88;101282.14;1725108;81;21390;-64
2020/12/22 05:59:21;;;;;;;8.80;7.62;;;;;;;8.98;52.86;101280.95;1734536;81;21188;-64
2020/12/22 06:01:48;;;;;;;8.75;7.60;;;;;;;8.98;52.88;101280.09;1725326;81;21240;-65
2020/12/22 06:04:17;;;;;;;8.53;7.28;;;;;;;8.98;52.85;101282.28;1728890;81;21198;-66
2020/12/22 06:06:46;;;;;;;9.15;7.22;;;;;;;8.97;52.87;101277.93;1715361;81;21179;-67
2020/12/22 06:09:15;;;;;;;9.20;7.80;;;;;;;8.97;52.88;101277.09;1746200;81;21576;-65
2020/12/22 06:11:46;;;;;;;8.73;7.65;;;;;;;8.97;52.87;101275.77;1741884;81;21226;-63
2020/12/22 06:14:18;;;;;;;8.80;6.70;;;;;;;8.95;52.84;101275.89;1726900;82;21151;-65
2020/12/22 06:16:45;;;;;;;9.38;7.87;;;;;;;8.97;52.87;101289.02;1745091;81;21159;-65
2020/12/22 06:19:53;;;;;;;8.18;7.17;;;;;;;8.99;52.84;101267.22;1772889;79;28391;-66
2020/12/22 06:22:21;;;;;;;8.60;7.00;;;;;;;8.95;52.79;101270.59;1719999;82;21144;-64
2020/12/22 06:24:52;;;;;;;8.78;6.65;;;;;;;8.96;52.79;101275.39;1728711;81;21157;-66
2020/12/22 06:27:19;;;;;;;8.23;6.65;;;;;;;8.96;52.82;101265.66;1722350;82;21168;-66
2020/12/22 06:29:47;;;;;;;8.33;6.78;;;;;;;8.96;52.78;101269.63;1738728;81;21186;-66
2020/12/22 06:32:23;;;;;;;8.93;7.60;;;;;;;8.96;52.77;101268.77;1741951;82;21122;-66
2020/12/22 06:34:56;;;;;;;8.68;7.28;;;;;;;8.96;52.75;101266.12;1686504;84;21230;-65
2020/12/22 06:37:43;;;;;;;9.23;7.70;;;;;;;8.95;52.72;101264.45;1755924;81;22244;-64
2020/12/22 06:40:10;;;;;;;8.33;6.80;;;;;;;8.94;52.72;101261.42;1736865;82;21118;-65
2020/12/22 06:42:44;;;;;;;8.25;6.83;;;;;;;8.93;52.74;101263.73;1738032;81;21171;-67
2020/12/22 06:45:28;;;;;;;7.80;7.00;;;;;;;8.92;52.76;101257.56;1787394;80;21103;-65
2020/12/22 06:47:57;;;;;;;7.67;6.75;;;;;;;8.93;52.74;101262.41;1783098;80;21150;-66
2020/12/22 06:53:35;;;;;;;7.70;6.05;;;;;;;8.95;52.80;101260.47;1817108;79;28688;-66
2020/12/22 06:56:03;;;;;;;6.03;5.40;;;;;;;8.83;52.78;101243.23;1768705;80;21243;-66
2020/12/22 06:58:44;;;;;;;8.20;7.08;;;;;;;8.89;52.81;101258.31;1788113;78;21362;-66
2020/12/22 07:01:30;;;;;;;8.68;6.28;;;;;;;8.88;52.82;101260.09;1790997;78;21179;-67
2020/12/22 07:04:17;;;;;;;7.12;6.03;;;;;;;8.88;52.83;101251.30;1811017;78;21195;-67
2020/12/22 07:06:58;;;;;;;7.10;5.70;;;;;;;8.87;52.81;101244.34;1771302;79;22015;-65
2020/12/22 07:09:31;;;;;;;7.85;6.40;;;;;;;8.85;52.83;101238.66;1781261;78;21603;-65
2020/12/22 07:12:12;;;;;;;8.28;6.70;;;;;;;8.85;52.84;101235.17;1788494;79;23572;-71
2020/12/22 07:14:41;;;;;;;7.45;6.17;;;;;;;8.85;52.84;101236.50;1794560;78;21179;-69
2020/12/22 07:17:10;;;;;;;8.23;6.78;;;;;;;8.84;52.86;101229.01;1777271;79;21134;-68
2020/12/22 07:19:38;;;;;;;7.45;6.35;;;;;;;8.85;52.85;101228.06;1774089;78;21147;-69
2020/12/22 07:22:07;;;;;;;8.20;6.07;;;;;;;8.86;52.84;101235.52;1789037;79;21212;-69
2020/12/22 07:24:36;;;;;;;6.92;5.87;;;;;;;8.87;52.83;101225.78;1772390;80;21370;-69
2020/12/22 07:27:04;;;;;;;7.17;6.17;;;;;;;8.88;52.82;101227.45;1786385;78;21151;-69
2020/12/22 07:29:31;;;;;;;8.63;6.35;;;;;;;8.88;52.81;101225.64;1806458;78;21635;-68
2020/12/22 07:31:59;;;;;;;7.33;6.05;;;;;;;8.89;52.78;101221.20;1800353;78;21363;-71
2020/12/22 07:34:27;;;;;;;7.03;6.00;;;;;;;8.88;52.75;101216.85;1761134;79;21860;-65
2020/12/22 07:37:11;;;;;;;6.70;5.92;;;;;;;8.90;52.74;101218.41;1750406;79;21454;-65
2020/12/22 07:39:39;;;;;;;8.30;6.83;;;;;;;8.91;52.75;101206.86;1766022;81;21139;-63
2020/12/22 07:42:15;;;;;;;8.00;6.35;;;;;;;8.91;52.72;101216.13;1748211;79;21312;-64
2020/12/22 07:44:50;;;;;;;9.03;6.40;;;;;;;8.96;52.72;101211.78;1794831;79;27820;-64
2020/12/22 07:47:18;;;;;;;7.47;6.12;;;;;;;8.91;52.68;101205.53;1784852;79;21183;-64
2020/12/22 07:49:47;;;;;;;7.28;6.25;;;;;;;8.86;52.65;101198.42;1786257;79;21196;-64
2020/12/22 07:52:16;;;;;;;7.42;6.37;;;;;;;8.93;52.66;101208.91;1789460;79;21173;-65
2020/12/22 07:54:58;;;;;;;7.47;6.17;;;;;;;8.94;52.64;101209.25;1788112;79;21144;-65
2020/12/22 07:57:26;;;;;;;7.10;6.10;;;;;;;8.95;52.66;101208.78;1783406;79;21164;-64
2020/12/22 08:00:06;;;;;;;6.90;5.83;;;;;;;8.95;52.61;101221.55;1783937;79;21155;-63
2020/12/22 08:02:34;;;;;;;7.00;5.70;;;;;;;8.96;52.60;101209.13;1783396;79;21185;-63
2020/12/22 08:05:11;;;;;;;6.80;5.85;;;;;;;8.96;52.58;101212.65;1793188;79;21151;-64
2020/12/22 08:07:42;;;;;;;7.92;6.72;;;;;;;8.97;52.57;101213.48;1783909;79;21149;-64
2020/12/22 08:10:14;;;;;;;7.85;5.20;;;;;;;8.97;52.56;101218.78;1787237;79;21168;-65
2020/12/22 08:12:53;;;;;;;6.42;5.75;;;;;;;8.97;52.53;101214.31;1783671;79;21248;-63
2020/12/22 08:15:20;;;;;;;6.97;5.83;;;;;;;8.98;52.54;101202.77;1783908;79;21363;-64
2020/12/22 08:17:51;;;;;;;7.22;5.90;;;;;;;8.98;52.52;101203.22;1789842;79;21171;-64
2020/12/22 08:20:18;;;;;;;6.62;5.58;;;;;;;8.99;52.50;101211.06;1784070;79;21157;-64
2020/12/22 08:22:46;;;;;;;7.00;5.70;;;;;;;8.99;52.50;101204.92;1795483;79;21143;-65
2020/12/22 08:25:13;;;;;;;7.42;5.72;;;;;;;9.01;52.49;101204.31;1765086;80;21186;-65
2020/12/22 08:27:40;;;;;;;6.90;5.37;;;;;;;9.00;52.43;101192.02;1756446;80;21396;-64
2020/12/22 08:30:19;;;;;;;6.28;5.55;;;;;;;9.02;52.40;101190.08;1781345;80;21182;-63
2020/12/22 08:32:46;;;;;;;6.45;5.40;;;;;;;9.04;52.36;101188.18;1780283;79;21557;-65
2020/12/22 08:35:21;;;;;;;6.70;5.33;;;;;;;9.04;52.36;101172.28;1766567;80;21179;-64
2020/12/22 08:37:48;;;;;;;7.62;5.40;;;;;;;9.04;52.36;101174.44;1756151;80;21136;-64
2020/12/22 08:40:31;;;;;;;5.60;5.00;;;;;;;9.05;52.31;101181.89;1769867;79;21353;-65
2020/12/22 08:42:58;;;;;;;7.08;6.35;;;;;;;9.07;52.30;101173.83;1821838;78;21276;-63
2020/12/22 08:45:28;;;;;;;6.22;4.90;;;;;;;9.06;52.27;101176.97;1822819;77;21154;-62
2020/12/22 08:47:56;;;;;;;7.62;5.67;;;;;;;9.07;52.26;101175.98;1822704;77;21160;-63
2020/12/22 08:50:23;;;;;;;6.08;5.37;;;;;;;9.07;52.22;101167.20;1823500;78;21194;-63
2020/12/22 08:52:51;;;;;;;5.72;5.12;;;;;;;9.08;52.21;101172.84;1823644;77;21894;-63
2020/12/22 08:55:18;;;;;;;8.43;5.33;;;;;;;9.07;52.19;101162.73;1770973;80;21197;-64
2020/12/22 08:57:45;;;;;;;6.53;5.53;;;;;;;9.09;52.22;101166.59;1758380;80;21187;-62
2020/12/22 09:00:13;;;;;;;6.40;5.33;;;;;;;9.09;52.17;101159.47;1825020;78;21631;-63
2020/12/22 09:02:41;;;;;;;6.58;5.22;;;;;;;9.10;52.17;101152.35;1821582;77;21598;-62
2020/12/22 09:05:16;;;;;;;6.95;5.70;;;;;;;9.11;52.12;101150.91;1822482;77;21380;-62
2020/12/22 09:07:44;;;;;;;7.17;5.65;;;;;;;9.12;52.10;101151.28;1821559;77;21599;-62
2020/12/22 09:10:11;;;;;;;6.65;5.58;;;;;;;9.12;52.07;101144.66;1828079;77;21163;-62
2020/12/22 09:12:38;;;;;;;5.72;5.12;;;;;;;9.13;52.09;101141.02;1821384;78;21155;-63
2020/12/22 09:15:08;;;;;;;6.22;5.50;;;;;;;9.13;52.06;101138.37;1823306;77;21174;-63
2020/12/22 09:17:36;;;;;;;6.97;5.47;;;;;;;9.14;52.05;101142.72;1823834;77;21367;-63
2020/12/22 09:20:05;;;;;;;6.67;5.60;;;;;;;9.15;52.04;101145.72;1828494;77;21190;-63
2020/12/22 09:22:33;;;;;;;6.78;5.95;;;;;;;9.15;52.01;101141.73;1833950;77;21129;-63
2020/12/22 09:25:04;;;;;;;7.95;5.78;;;;;;;9.16;51.97;101134.64;1834515;77;21112;-63
2020/12/22 09:27:39;;;;;;;7.37;5.42;;;;;;;9.16;51.96;101131.50;1825040;77;21179;-63
2020/12/22 09:30:10;;;;;;;6.15;5.20;;;;;;;9.17;51.99;101134.50;1821811;77;21206;-62
2020/12/22 09:32:40;;;;;;;7.12;5.62;;;;;;;9.17;51.95;101134.50;1823321;77;21196;-63
2020/12/22 09:35:08;;;;;;;6.00;5.40;;;;;;;9.17;51.95;101131.02;1821495;77;21113;-64
2020/12/22 09:37:37;;;;;;;8.90;5.47;;;;;;;9.18;51.94;101132.71;1821244;77;21207;-64
2020/12/22 09:40:04;;;;;;;6.67;5.47;;;;;;;9.18;51.92;101120.29;1821478;78;21158;-62
2020/12/22 09:42:31;;;;;;;5.97;5.20;;;;;;;9.19;51.90;101122.45;1824391;77;21211;-63
2020/12/22 09:44:58;;;;;;;7.83;6.00;;;;;;;9.19;51.92;101114.03;1824372;77;21852;-65
2020/12/22 09:47:25;;;;;;;6.67;5.28;;;;;;;9.19;51.87;101119.34;1821330;77;21639;-62
2020/12/22 09:49:54;;;;;;;7.33;6.17;;;;;;;9.20;51.91;101109.56;1821162;77;21195;-62
2020/12/22 09:52:21;;;;;;;6.87;6.03;;;;;;;9.19;51.86;101107.41;1825620;77;21151;-62
2020/12/22 09:54:49;;;;;;;6.55;5.15;;;;;;;9.20;51.86;101108.23;1825072;77;21346;-63
2020/12/22 09:57:17;;;;;;;6.67;5.85;;;;;;;9.20;51.86;101094.48;1821385;77;21160;-62
2020/12/22 09:59:46;;;;;;;7.62;5.72;;;;;;;9.21;51.88;101101.49;1823886;77;21582;-63
2020/12/22 10:02:13;;;;;;;6.37;5.60;;;;;;;9.21;51.84;101094.86;1821881;77;21609;-63
2020/12/22 10:04:40;;;;;;;6.45;5.67;;;;;;;9.22;51.84;101091.22;1821361;77;21133;-63
2020/12/22 10:07:08;;;;;;;7.30;5.67;;;;;;;9.22;51.83;101081.94;1821375;78;21205;-63
2020/12/22 10:09:36;;;;;;;6.70;5.47;;;;;;;9.23;51.81;101084.10;1822800;77;21203;-63
2020/12/22 10:12:05;;;;;;;6.80;5.70;;;;;;;9.21;51.82;101078.09;1766169;79;21192;-63
2020/12/22 10:14:33;;;;;;;7.12;5.90;;;;;;;9.24;51.81;101075.20;1766094;79;21172;-62
2020/12/22 10:17:00;;;;;;;6.67;5.60;;;;;;;9.25;51.79;101074.21;1767763;79;21166;-62
2020/12/22 10:19:27;;;;;;;6.22;5.33;;;;;;;9.25;51.78;101067.12;1765463;79;21391;-62
2020/12/22 10:21:55;;;;;;;9.30;6.08;;;;;;;9.26;51.77;101063.97;1765499;79;21768;-63
2020/12/22 10:24:24;;;;;;;7.22;6.28;;;;;;;9.25;51.73;101060.49;1763599;79;21159;-64
2020/12/22 10:26:51;;;;;;;8.63;6.08;;;;;;;9.27;51.74;101063.48;1766909;79;21163;-63
2020/12/22 10:29:18;;;;;;;7.10;6.10;;;;;;;9.25;51.73;101060.49;1766201;79;21143;-64
2020/12/22 10:31:46;;;;;;;6.97;6.00;;;;;;;9.27;51.74;101055.53;1766432;79;23624;-62
2020/12/22 10:34:13;;;;;;;7.45;5.87;;;;;;;9.27;51.76;101052.88;1756213;80;21657;-63
2020/12/22 10:36:40;;;;;;;7.35;6.12;;;;;;;9.27;51.76;101046.24;1758109;80;22126;-64
2020/12/22 10:39:09;;;;;;;6.92;5.90;;;;;;;9.27;51.74;101050.22;1820768;77;21145;-63
2020/12/22 10:41:36;;;;;;;6.97;5.80;;;;;;;9.27;51.72;101044.92;1821333;77;21136;-62
2020/12/22 10:44:03;;;;;;;8.60;6.37;;;;;;;9.25;51.72;101040.60;1773508;80;21218;-63
2020/12/22 10:46:31;;;;;;;7.55;6.50;;;;;;;9.25;51.74;101036.63;1766963;79;21162;-62
2020/12/22 10:48:58;;;;;;;7.67;6.00;;;;;;;9.28;51.72;101033.36;1766994;79;21111;-62
2020/12/22 10:51:26;;;;;;;7.20;6.05;;;;;;;9.28;51.71;101034.69;1766475;79;21196;-64
2020/12/22 10:53:53;;;;;;;7.28;5.70;;;;;;;9.28;51.70;101028.05;1766174;79;21204;-63
2020/12/22 10:56:20;;;;;;;7.55;6.08;;;;;;;9.28;51.72;101024.91;1766182;79;21377;-63
2020/12/22 10:58:47;;;;;;;8.45;6.30;;;;;;;9.29;51.70;101024.42;1766233;79;21223;-62
2020/12/22 11:01:15;;;;;;;6.75;6.03;;;;;;;9.29;51.70;101021.77;1766556;79;21197;-63
2020/12/22 11:03:43;;;;;;;8.05;6.67;;;;;;;9.30;51.69;101018.16;1766202;79;21172;-63
2020/12/22 11:08:46;;;;;;;7.72;6.55;;;;;;;9.29;51.68;101015.14;1766200;79;21410;-62
2020/12/22 11:11:15;;;;;;;8.48;6.28;;;;;;;9.30;51.68;101012.86;1766163;79;21172;-63
2020/12/22 11:13:42;;;;;;;8.23;6.78;;;;;;;9.29;51.68;101016.46;1767218;79;21639;-62
2020/12/22 11:16:12;;;;;;;9.23;7.25;;;;;;;9.29;51.68;101014.67;1766615;79;21175;-64
2020/12/22 11:18:40;;;;;;;7.45;6.40;;;;;;;9.30;51.68;101012.86;1778299;79;21116;-64
2020/12/22 11:21:11;;;;;;;8.08;6.85;;;;;;;9.30;51.67;101012.86;1766191;81;21619;-63
2020/12/22 11:23:41;;;;;;;8.65;7.05;;;;;;;9.29;51.64;101010.70;1768957;79;21190;-62
2020/12/22 11:26:16;;;;;;;8.25;6.58;;;;;;;9.30;51.66;101010.20;1766863;79;21163;-64
2020/12/22 11:28:43;;;;;;;7.22;6.10;;;;;;;9.29;51.66;101009.38;1765618;79;21642;-62
2020/12/22 11:31:11;;;;;;;8.20;6.25;;;;;;;9.29;51.67;100996.57;1766225;81;21147;-64
2020/12/22 11:33:42;;;;;;;9.15;6.95;;;;;;;9.29;51.64;100993.92;1766054;79;22355;-62
2020/12/22 11:36:14;;;;;;;8.83;6.85;;;;;;;9.29;51.67;100993.92;1782536;79;21208;-63
2020/12/22 11:38:43;;;;;;;8.48;6.70;;;;;;;9.29;51.67;100983.31;1766191;81;21158;-63
2020/12/22 11:41:10;;;;;;;9.00;7.33;;;;;;;9.29;51.68;100984.64;1767119;79;21163;-63
2020/12/22 11:43:37;;;;;;;9.00;7.17;;;;;;;9.29;51.67;100984.18;1766494;79;21172;-63
2020/12/22 11:46:09;;;;;;;9.85;7.53;;;;;;;9.28;51.67;100989.61;1766089;79;21325;-61